createdAt,value
2018-05-18T00:01:05.435Z,12.30
2018-05-18T00:03:33.625Z,12.20
2018-05-18T00:06:01.783Z,12.20
2018-05-18T00:08:29.933Z,12.20
2018-05-18T00:10:58.111Z,12.30
2018-05-18T00:13:27.026Z,12.20
2018-05-18T00:15:55.159Z,12.10
2018-05-18T00:18:23.309Z,12.20
2018-05-18T00:20:51.480Z,12.30
2018-05-18T00:23:19.657Z,12.20
2018-05-18T00:25:47.795Z,12.20
2018-05-18T00:28:15.926Z,12.20
2018-05-18T00:30:44.134Z,12.20
2018-05-18T00:33:12.279Z,12.30
2018-05-18T00:35:40.452Z,12.30
2018-05-18T00:38:09.362Z,12.20
2018-05-18T00:40:37.523Z,12.20
2018-05-18T00:43:06.521Z,12.20
2018-05-18T00:45:34.740Z,12.20
2018-05-18T00:48:02.882Z,12.20
2018-05-18T00:50:31.018Z,12.10
2018-05-18T00:52:59.160Z,12.00
2018-05-18T00:55:40.840Z,12.00
2018-05-18T00:58:09.845Z,12.00
2018-05-18T01:00:37.987Z,12.00
2018-05-18T01:03:06.125Z,12.00
2018-05-18T01:05:35.041Z,12.00
2018-05-18T01:08:03.179Z,12.00
2018-05-18T01:10:31.310Z,12.00
2018-05-18T01:13:00.276Z,12.10
2018-05-18T01:15:28.400Z,12.10
2018-05-18T01:17:56.554Z,12.10
2018-05-18T01:20:24.699Z,12.10
2018-05-18T01:22:52.871Z,12.10
2018-05-18T01:25:21.018Z,12.10
2018-05-18T01:27:49.947Z,12.10
2018-05-18T01:30:18.143Z,12.10
2018-05-18T01:32:46.305Z,12.20
2018-05-18T01:35:14.460Z,12.20
2018-05-18T01:37:42.623Z,12.10
2018-05-18T01:40:10.758Z,12.10
2018-05-18T01:42:38.907Z,12.10
2018-05-18T01:45:07.033Z,12.10
2018-05-18T01:47:35.193Z,12.20
2018-05-18T01:50:04.101Z,12.10
2018-05-18T01:52:32.240Z,12.10
2018-05-18T01:55:01.176Z,12.10
2018-05-18T01:57:29.326Z,12.10
2018-05-18T01:59:58.222Z,12.10
2018-05-18T02:02:26.366Z,12.10
2018-05-18T02:04:55.273Z,12.10
2018-05-18T02:07:24.191Z,12.10
2018-05-18T02:09:54.698Z,12.10
2018-05-18T02:12:22.856Z,12.10
2018-05-18T02:14:51.747Z,12.10
2018-05-18T02:17:20.657Z,12.10
2018-05-18T02:19:48.800Z,12.00
2018-05-18T02:22:17.026Z,12.00
2018-05-18T02:24:45.156Z,12.10
2018-05-18T02:27:14.076Z,12.10
2018-05-18T02:29:42.216Z,12.10
2018-05-18T02:32:11.131Z,12.20
2018-05-18T02:34:39.267Z,12.20
2018-05-18T02:37:07.430Z,12.30
2018-05-18T02:39:35.563Z,12.20
2018-05-18T02:42:03.741Z,12.10
2018-05-18T02:44:31.993Z,12.10
2018-05-18T02:47:00.079Z,12.10
2018-05-18T02:49:28.397Z,12.10
2018-05-18T02:51:56.591Z,12.10
2018-05-18T02:54:25.501Z,12.00
2018-05-18T02:56:53.625Z,12.00
2018-05-18T02:59:21.762Z,12.00
2018-05-18T03:01:49.891Z,12.00
2018-05-18T03:04:18.857Z,12.10
2018-05-18T03:06:46.991Z,12.10
2018-05-18T03:09:15.894Z,12.30
2018-05-18T03:11:44.086Z,12.20
2018-05-18T03:14:12.235Z,12.20
2018-05-18T03:16:40.392Z,12.20
2018-05-18T03:19:08.539Z,12.30
2018-05-18T03:21:37.441Z,12.20
2018-05-18T03:24:06.342Z,12.30
2018-05-18T03:26:34.493Z,12.20
2018-05-18T03:29:03.416Z,12.20
2018-05-18T03:31:31.560Z,12.20
2018-05-18T03:34:00.466Z,12.30
2018-05-18T03:36:28.619Z,12.30
2018-05-18T03:38:57.521Z,12.30
2018-05-18T03:41:26.436Z,12.20
2018-05-18T03:43:54.604Z,12.20
2018-05-18T03:46:22.739Z,12.20
2018-05-18T03:48:51.642Z,12.10
2018-05-18T03:51:20.557Z,12.10
2018-05-18T03:53:48.713Z,12.00
2018-05-18T03:56:16.856Z,12.10
2018-05-18T03:58:44.997Z,12.10
2018-05-18T04:01:31.809Z,12.10
2018-05-18T04:04:17.623Z,12.00
2018-05-18T04:07:04.223Z,12.00
2018-05-18T04:09:32.382Z,11.90
2018-05-18T04:12:00.571Z,12.00
2018-05-18T04:14:28.713Z,11.90
2018-05-18T04:16:56.848Z,12.00
2018-05-18T04:19:25.760Z,12.00
2018-05-18T04:21:53.988Z,12.00
2018-05-18T04:24:22.076Z,12.10
2018-05-18T04:26:50.986Z,12.10
2018-05-18T04:29:19.106Z,12.10
2018-05-18T04:31:47.278Z,12.20
2018-05-18T04:34:15.407Z,12.20
2018-05-18T04:36:43.557Z,12.10
2018-05-18T04:39:11.738Z,12.10
2018-05-18T04:41:39.912Z,12.10
2018-05-18T04:44:08.043Z,12.00
2018-05-18T04:46:36.198Z,12.10
2018-05-18T04:49:04.333Z,12.10
2018-05-18T04:51:32.510Z,12.00
2018-05-18T04:54:00.628Z,12.10
2018-05-18T04:56:28.776Z,12.10
2018-05-18T04:58:56.925Z,12.10
2018-05-18T05:01:25.076Z,12.20
2018-05-18T05:03:54.077Z,12.30
2018-05-18T05:06:23.018Z,12.40
2018-05-18T05:08:51.252Z,12.40
2018-05-18T05:11:19.786Z,12.50
2018-05-18T05:13:47.918Z,12.30
2018-05-18T05:16:16.050Z,12.30
2018-05-18T05:18:44.215Z,12.40
2018-05-18T05:21:12.351Z,12.30
2018-05-18T05:23:40.575Z,12.30
2018-05-18T05:26:08.682Z,12.40
2018-05-18T05:28:36.846Z,12.40
2018-05-18T05:31:05.026Z,12.50
2018-05-18T05:33:33.173Z,12.40
2018-05-18T05:36:01.839Z,12.50
2018-05-18T05:38:29.986Z,12.70
2018-05-18T05:40:58.173Z,12.80
2018-05-18T05:43:26.334Z,12.80
2018-05-18T05:45:54.554Z,12.80
2018-05-18T05:48:23.445Z,12.80
2018-05-18T05:50:51.574Z,12.80
2018-05-18T05:53:19.725Z,12.80
2018-05-18T05:55:47.852Z,12.80
2018-05-18T05:58:16.765Z,13.00
2018-05-18T06:00:45.776Z,12.90
2018-05-18T06:03:13.966Z,13.10
2018-05-18T06:05:42.123Z,13.10
2018-05-18T06:08:10.269Z,13.10
2018-05-18T06:10:38.428Z,13.00
2018-05-18T06:13:07.333Z,12.90
2018-05-18T06:15:35.546Z,12.90
2018-05-18T06:18:03.723Z,12.90
2018-05-18T06:20:33.054Z,12.90
2018-05-18T06:23:01.259Z,12.90
2018-05-18T06:25:29.426Z,12.80
2018-05-18T06:27:57.573Z,12.90
2018-05-18T06:30:26.475Z,12.80
2018-05-18T06:32:54.644Z,12.80
2018-05-18T06:35:23.543Z,12.90
2018-05-18T06:37:52.465Z,13.00
2018-05-18T06:40:20.611Z,13.00
2018-05-18T06:42:49.050Z,12.90
2018-05-18T06:45:17.231Z,12.90
2018-05-18T06:47:45.413Z,12.90
2018-05-18T06:50:14.343Z,12.90
2018-05-18T06:52:42.499Z,12.80
2018-05-18T06:55:11.019Z,12.80
2018-05-18T06:57:39.252Z,12.90
2018-05-18T07:00:08.142Z,12.90
2018-05-18T07:02:36.338Z,12.80
2018-05-18T07:05:04.490Z,12.80
2018-05-18T07:07:32.642Z,12.80
2018-05-18T07:10:00.781Z,12.90
2018-05-18T07:12:28.934Z,12.90
2018-05-18T07:14:57.122Z,12.90
2018-05-18T07:17:25.310Z,12.80
2018-05-18T07:19:53.448Z,12.80
2018-05-18T07:22:21.606Z,12.90
2018-05-18T07:24:49.817Z,12.80
2018-05-18T07:27:17.971Z,12.80
2018-05-18T07:29:46.176Z,12.80
2018-05-18T07:32:14.350Z,12.80
2018-05-18T07:34:42.846Z,12.80
2018-05-18T07:37:11.765Z,12.60
2018-05-18T07:39:39.914Z,12.60
2018-05-18T07:42:08.075Z,12.70
2018-05-18T07:44:36.250Z,12.60
2018-05-18T07:47:05.231Z,12.60
2018-05-18T07:49:33.382Z,12.50
2018-05-18T07:52:01.516Z,12.60
2018-05-18T07:54:29.672Z,12.50
2018-05-18T07:56:58.576Z,12.40
2018-05-18T07:59:26.836Z,12.40
2018-05-18T08:01:54.904Z,12.50
2018-05-18T08:04:23.833Z,12.50
2018-05-18T08:06:51.990Z,12.50
2018-05-18T08:09:20.179Z,12.50
2018-05-18T08:11:48.332Z,12.60
2018-05-18T08:14:18.060Z,12.70
2018-05-18T08:16:46.195Z,12.70
2018-05-18T08:19:15.116Z,12.80
2018-05-18T08:21:43.421Z,12.80
2018-05-18T08:24:11.552Z,12.70
2018-05-18T08:26:39.691Z,12.80
2018-05-18T08:29:29.213Z,12.60
2018-05-18T08:32:21.477Z,12.80
2018-05-18T08:34:54.199Z,13.00
2018-05-18T08:37:22.387Z,12.90
2018-05-18T08:39:54.274Z,12.90
2018-05-18T08:42:53.468Z,12.80
2018-05-18T08:52:34.815Z,12.80
2018-05-18T09:01:26.046Z,13.00
2018-05-18T09:03:54.186Z,13.20
2018-05-18T09:06:23.070Z,13.20
2018-05-18T09:09:05.807Z,13.10
2018-05-18T09:11:34.091Z,13.10
2018-05-18T09:14:03.267Z,13.20
2018-05-18T09:16:31.472Z,13.30
2018-05-18T09:18:59.630Z,13.40
2018-05-18T09:21:28.037Z,13.60
2018-05-18T09:23:56.430Z,13.60
2018-05-18T09:26:24.753Z,13.50
2018-05-18T09:28:52.845Z,13.60
2018-05-18T09:31:21.009Z,13.60
2018-05-18T09:33:49.213Z,13.70
2018-05-18T09:36:17.572Z,13.70
2018-05-18T09:38:45.741Z,13.70
2018-05-18T09:41:13.969Z,13.70
2018-05-18T09:43:42.883Z,13.50
2018-05-18T09:46:11.032Z,13.50
2018-05-18T09:48:39.514Z,13.60
2018-05-18T09:51:07.876Z,13.40
2018-05-18T09:53:36.975Z,13.50
2018-05-18T09:56:09.519Z,13.50
2018-05-18T09:58:37.720Z,13.60
2018-05-18T10:01:06.387Z,13.60
2018-05-18T10:03:34.566Z,13.70
2018-05-18T10:06:02.754Z,14.00
2018-05-18T10:08:31.691Z,13.90
2018-05-18T10:10:59.818Z,13.90
2018-05-18T10:13:27.952Z,14.10
2018-05-18T10:15:56.082Z,14.10
2018-05-18T10:18:24.224Z,14.10
2018-05-18T10:20:52.390Z,13.90
2018-05-18T10:23:20.546Z,13.90
2018-05-18T10:25:48.676Z,14.00
2018-05-18T10:28:17.582Z,13.80
2018-05-18T10:30:46.952Z,13.70
2018-05-18T10:45:44.900Z,14.00
2018-05-18T10:48:14.480Z,14.00
2018-05-18T10:50:42.643Z,14.00
2018-05-18T10:53:12.438Z,14.00
2018-05-18T10:55:40.625Z,14.00
2018-05-18T10:58:09.662Z,14.10
2018-05-18T11:00:42.013Z,14.20
2018-05-18T11:06:16.214Z,14.50
2018-05-18T11:08:56.881Z,14.60
2018-05-18T11:11:31.655Z,14.50
2018-05-18T11:14:27.274Z,14.60
2018-05-18T11:19:31.325Z,14.30
2018-05-18T11:21:59.474Z,14.30
2018-05-18T11:24:27.621Z,14.10
2018-05-18T11:26:55.823Z,14.10
2018-05-18T11:29:25.634Z,14.30
2018-05-18T11:31:54.585Z,14.20
2018-05-18T11:34:22.765Z,14.20
2018-05-18T11:36:50.901Z,14.10
2018-05-18T11:39:19.089Z,14.30
2018-05-18T11:41:47.240Z,14.20
2018-05-18T11:44:15.405Z,14.40
2018-05-18T11:46:44.998Z,14.10
2018-05-18T11:49:13.915Z,14.10
2018-05-18T11:51:42.062Z,14.10
2018-05-18T11:54:10.968Z,13.90
2018-05-18T11:56:39.123Z,13.90
2018-05-18T11:59:08.043Z,14.00
2018-05-18T12:01:36.202Z,14.00
2018-05-18T12:04:04.334Z,14.10
2018-05-18T12:06:32.490Z,13.90
2018-05-18T12:09:00.693Z,13.70
2018-05-18T12:11:28.875Z,13.70
2018-05-18T12:13:57.882Z,14.00
2018-05-18T12:16:26.217Z,13.90
2018-05-18T12:18:54.363Z,14.10
2018-05-18T12:21:22.513Z,14.10
2018-05-18T12:23:50.675Z,14.10
2018-05-18T12:26:18.824Z,14.00
2018-05-18T12:28:46.979Z,14.20
2018-05-18T12:31:15.163Z,14.30
2018-05-18T12:33:43.291Z,14.30
2018-05-18T12:36:11.466Z,14.40
2018-05-18T12:38:39.610Z,14.50
2018-05-18T12:41:07.805Z,14.60
2018-05-18T12:43:35.978Z,14.70
2018-05-18T12:46:04.172Z,14.60
2018-05-18T12:48:33.174Z,14.50
2018-05-18T12:51:01.359Z,14.30
2018-05-18T12:53:29.514Z,14.20
2018-05-18T12:55:57.660Z,14.30
2018-05-18T12:58:25.790Z,14.20
2018-05-18T13:00:54.721Z,14.20
2018-05-18T13:03:22.857Z,14.20
2018-05-18T13:05:51.797Z,14.50
2018-05-18T13:08:19.921Z,14.40
2018-05-18T13:10:52.267Z,14.30
2018-05-18T13:13:20.444Z,14.30
2018-05-18T13:15:48.630Z,14.40
2018-05-18T13:18:16.737Z,14.30
2018-05-18T13:20:44.878Z,14.30
2018-05-18T13:23:13.880Z,14.20
2018-05-18T13:25:42.795Z,14.20
2018-05-18T13:28:11.885Z,14.20
2018-05-18T13:30:40.151Z,14.20
2018-05-18T13:33:08.376Z,14.20
2018-05-18T13:35:36.521Z,14.20
2018-05-18T13:38:04.675Z,14.30
2018-05-18T13:40:32.847Z,14.40
2018-05-18T13:43:01.059Z,14.50
2018-05-18T13:45:30.061Z,14.70
2018-05-18T13:47:58.193Z,14.70
2018-05-18T13:50:26.358Z,14.70
2018-05-18T13:52:54.495Z,14.80
2018-05-18T13:55:22.638Z,14.80
2018-05-18T13:57:50.843Z,14.70
2018-05-18T14:00:19.043Z,14.70
2018-05-18T14:02:47.518Z,14.70
2018-05-18T14:05:16.005Z,14.80
2018-05-18T14:07:44.823Z,14.60
2018-05-18T14:10:12.993Z,14.70
2018-05-18T14:12:41.136Z,14.70
2018-05-18T14:15:12.897Z,14.50
2018-05-18T14:17:41.070Z,14.50
2018-05-18T14:20:09.270Z,14.50
2018-05-18T14:22:37.425Z,14.50
2018-05-18T14:25:05.553Z,14.10
2018-05-18T14:27:33.741Z,14.00
2018-05-18T14:30:02.656Z,14.40
2018-05-18T14:32:30.795Z,14.40
2018-05-18T14:34:58.918Z,14.60
2018-05-18T14:37:27.140Z,14.70
2018-05-18T14:39:55.289Z,14.70
2018-05-18T14:42:24.309Z,14.80
2018-05-18T14:44:52.967Z,14.80
2018-05-18T14:47:21.826Z,14.60
2018-05-18T14:49:49.972Z,14.70
2018-05-18T14:52:18.921Z,14.70
2018-05-18T14:54:47.052Z,14.60
2018-05-18T14:57:15.252Z,14.70
2018-05-18T14:59:43.442Z,14.50
2018-05-18T15:02:11.561Z,14.60
2018-05-18T15:04:39.756Z,14.60
2018-05-18T15:07:07.889Z,14.60
2018-05-18T15:09:36.844Z,14.70
2018-05-18T15:12:04.994Z,14.70
2018-05-18T15:14:33.306Z,14.90
2018-05-18T15:17:01.523Z,14.90
2018-05-18T15:19:29.662Z,14.80
2018-05-18T15:21:57.842Z,14.70
2018-05-18T15:24:26.844Z,14.30
2018-05-18T15:26:55.876Z,14.30
2018-05-18T15:29:24.047Z,14.30
2018-05-18T15:31:52.205Z,14.30
2018-05-18T15:34:20.391Z,14.40
2018-05-18T15:36:48.522Z,14.60
2018-05-18T15:39:16.659Z,14.70
2018-05-18T15:41:44.844Z,14.70
2018-05-18T15:44:12.995Z,14.70
2018-05-18T15:46:41.242Z,14.60
2018-05-18T15:49:09.731Z,14.60
2018-05-18T15:51:37.889Z,14.30
2018-05-18T15:54:12.047Z,14.20
2018-05-18T15:56:40.234Z,14.10
2018-05-18T15:59:18.873Z,14.10
2018-05-18T16:01:47.091Z,14.10
2018-05-18T16:04:15.256Z,14.10
2018-05-18T16:06:44.916Z,14.00
2018-05-18T16:09:13.059Z,14.00
2018-05-18T16:11:41.262Z,13.90
2018-05-18T16:14:12.009Z,14.10
2018-05-18T16:16:40.991Z,14.10
2018-05-18T16:19:09.535Z,14.00
2018-05-18T16:21:37.757Z,14.10
2018-05-18T16:24:08.251Z,14.00
2018-05-18T16:26:36.422Z,14.00
2018-05-18T16:29:04.562Z,14.10
2018-05-18T16:31:32.714Z,14.00
2018-05-18T16:34:00.952Z,14.00
2018-05-18T16:36:30.012Z,13.90
2018-05-18T16:38:58.203Z,13.80
2018-05-18T16:41:26.375Z,13.80
2018-05-18T16:43:54.493Z,13.60
2018-05-18T16:46:24.157Z,13.50
2018-05-18T16:48:52.307Z,13.50
2018-05-18T16:51:20.463Z,13.50
2018-05-18T16:53:48.598Z,13.60
2018-05-18T16:56:16.801Z,13.70
2018-05-18T16:58:46.999Z,13.70
2018-05-18T17:01:17.005Z,13.70
2018-05-18T17:03:45.258Z,13.70
2018-05-18T17:06:13.470Z,13.70
2018-05-18T17:08:44.153Z,13.80
2018-05-18T17:11:13.133Z,13.80
2018-05-18T17:13:41.544Z,13.90
2018-05-18T17:16:09.714Z,13.90
2018-05-18T17:18:37.852Z,13.80
2018-05-18T17:21:07.751Z,13.70
2018-05-18T17:23:35.977Z,13.80
2018-05-18T17:26:04.175Z,13.80
2018-05-18T17:31:42.976Z,13.70
2018-05-18T17:34:11.683Z,13.60
2018-05-18T17:36:39.844Z,13.50
2018-05-18T17:41:50.836Z,13.50
2018-05-18T17:44:19.058Z,13.50
2018-05-18T17:46:47.209Z,13.30
2018-05-18T17:52:22.138Z,13.40
2018-05-18T18:04:15.621Z,13.40
2018-05-18T18:06:44.658Z,13.40
2018-05-18T18:21:58.665Z,13.20
2018-05-18T18:24:56.731Z,13.30
2018-05-18T18:27:27.043Z,13.40
2018-05-18T18:33:05.426Z,13.30
2018-05-18T18:35:39.037Z,13.20
2018-05-18T18:38:13.518Z,13.20
2018-05-18T18:40:41.911Z,13.30
2018-05-18T18:43:10.171Z,13.30
2018-05-18T18:45:38.331Z,13.40
2018-05-18T18:48:06.461Z,13.50
2018-05-18T18:50:34.699Z,13.40
2018-05-18T18:53:03.671Z,13.20
2018-05-18T18:55:32.158Z,13.20
2018-05-18T18:58:00.349Z,13.30
2018-05-18T19:00:32.317Z,13.30
2018-05-18T19:03:00.552Z,13.20
2018-05-18T19:05:28.774Z,13.10
2018-05-18T19:07:57.769Z,12.90
2018-05-18T19:10:26.539Z,12.90
2018-05-18T19:12:54.700Z,12.90
2018-05-18T19:15:22.899Z,12.80
2018-05-18T19:17:51.003Z,12.70
2018-05-18T19:20:19.151Z,12.80
2018-05-18T19:22:48.801Z,12.90
2018-05-18T19:25:16.954Z,12.80
2018-05-18T19:27:45.099Z,12.90
2018-05-18T19:30:14.038Z,12.90
2018-05-18T19:32:42.192Z,12.90
2018-05-18T19:35:10.353Z,12.80
2018-05-18T19:37:38.498Z,12.90
2018-05-18T19:40:06.805Z,12.80
2018-05-18T19:42:34.992Z,12.80
2018-05-18T19:45:03.387Z,12.70
2018-05-18T19:47:31.526Z,12.70
2018-05-18T19:50:00.592Z,12.80
2018-05-18T19:52:29.602Z,12.80
2018-05-18T19:55:00.158Z,13.00
2018-05-18T19:57:31.289Z,13.00
2018-05-18T19:59:59.432Z,12.90
2018-05-18T20:02:28.961Z,13.00
2018-05-18T20:04:57.225Z,13.00
2018-05-18T20:07:27.602Z,13.10
2018-05-18T20:09:57.528Z,13.10
2018-05-18T20:12:27.700Z,13.10
2018-05-18T20:14:58.253Z,13.10
2018-05-18T20:17:43.888Z,13.10
2018-05-18T20:20:12.306Z,13.10
2018-05-18T20:22:41.223Z,13.10
2018-05-18T20:25:09.661Z,12.90
2018-05-18T20:27:39.130Z,12.70
2018-05-18T20:30:08.247Z,12.60
2018-05-18T20:32:36.455Z,12.60
2018-05-18T20:35:04.597Z,12.60
2018-05-18T20:37:33.543Z,12.60
2018-05-18T20:40:01.706Z,12.60
2018-05-18T20:42:31.736Z,12.70
2018-05-18T20:45:00.732Z,12.70
2018-05-18T20:47:32.051Z,12.70
2018-05-18T20:50:02.608Z,12.70
2018-05-18T20:52:30.765Z,12.80
2018-05-18T20:54:59.071Z,12.70
2018-05-18T20:57:27.242Z,12.70
2018-05-18T20:59:59.090Z,12.70
2018-05-18T21:02:28.048Z,12.80
2018-05-18T21:04:56.207Z,12.80
2018-05-18T21:07:24.516Z,12.80
2018-05-18T21:09:53.856Z,12.70
2018-05-18T21:12:22.978Z,12.60
2018-05-18T21:14:51.163Z,12.60
2018-05-18T21:17:19.299Z,12.70
2018-05-18T21:19:48.274Z,12.70
2018-05-18T21:22:16.482Z,12.70
2018-05-18T21:24:44.616Z,12.70
2018-05-18T21:27:13.405Z,12.70
2018-05-18T21:29:41.537Z,12.70
2018-05-18T21:32:09.893Z,12.80
2018-05-18T21:34:38.084Z,12.80
2018-05-18T21:37:06.420Z,12.70
2018-05-18T21:39:34.695Z,12.50
2018-05-18T21:42:02.847Z,12.50
2018-05-18T21:44:31.956Z,12.30
2018-05-18T21:47:01.154Z,12.40
2018-05-18T21:49:30.102Z,12.50
2018-05-18T21:51:58.241Z,12.50
2018-05-18T21:54:26.362Z,12.50
2018-05-18T21:56:54.573Z,12.50
2018-05-18T21:59:22.864Z,12.60
2018-05-18T22:01:51.699Z,12.50
2018-05-18T22:04:20.814Z,12.50
2018-05-18T22:06:50.117Z,12.50
2018-05-18T22:09:19.426Z,12.50
2018-05-18T22:11:48.382Z,12.50
2018-05-18T22:14:17.357Z,12.50
2018-05-18T22:16:45.600Z,12.50
2018-05-18T22:19:13.820Z,12.50
2018-05-18T22:21:42.897Z,12.40
2018-05-18T22:24:11.045Z,12.40
2018-05-18T22:26:40.616Z,12.40
2018-05-18T22:29:09.069Z,12.30
2018-05-18T22:31:38.305Z,12.30
2018-05-18T22:34:07.208Z,12.20
2018-05-18T22:36:35.353Z,12.20
2018-05-18T22:39:03.504Z,12.30
2018-05-18T22:41:32.765Z,12.40
2018-05-18T22:44:00.922Z,12.40
2018-05-18T22:46:29.096Z,12.30
2018-05-18T22:48:57.457Z,12.30
2018-05-18T22:51:25.624Z,12.30
2018-05-18T22:53:54.539Z,12.20
2018-05-18T22:56:24.326Z,12.20
2018-05-18T22:58:52.471Z,12.20
2018-05-18T23:01:20.597Z,12.20
2018-05-18T23:03:51.825Z,12.30
2018-05-18T23:06:20.290Z,12.30
2018-05-18T23:08:48.452Z,12.30
2018-05-18T23:11:16.684Z,12.30
2018-05-18T23:13:44.842Z,12.20
2018-05-18T23:16:13.186Z,12.20
2018-05-18T23:18:41.311Z,12.20
2018-05-18T23:21:09.449Z,12.30
2018-05-18T23:23:38.373Z,12.30
2018-05-18T23:26:06.518Z,12.30
2018-05-18T23:28:35.418Z,12.30
2018-05-18T23:31:03.558Z,12.30
2018-05-18T23:33:31.684Z,12.40
2018-05-18T23:35:59.825Z,12.30
2018-05-18T23:38:28.718Z,12.30
2018-05-18T23:40:57.634Z,12.30
2018-05-18T23:43:25.799Z,12.30
2018-05-18T23:45:53.941Z,12.30
2018-05-18T23:48:22.852Z,12.30
2018-05-18T23:50:51.018Z,12.30
2018-05-18T23:53:19.943Z,12.30
2018-05-18T23:55:48.146Z,12.30
2018-05-18T23:58:17.071Z,12.10
